sensor_id;sensor_type;location;lat;lon;timestamp;P1;durP1;ratioP1;P2;durP2;ratioP2
41466;SDS011;27205;53.690;19.948;2022-10-28T00:00:11;40.70;;;30.40;;
41466;SDS011;27205;53.690;19.948;2022-10-28T00:05:35;49.60;;;30.90;;
41466;SDS011;27205;53.690;19.948;2022-10-28T00:10:38;42.40;;;30.10;;
41466;SDS011;27205;53.690;19.948;2022-10-28T00:15:41;55.50;;;32.00;;
41466;SDS011;27205;53.690;19.948;2022-10-28T00:20:45;72.90;;;32.40;;
41466;SDS011;27205;53.690;19.948;2022-10-28T00:25:48;64.00;;;31.20;;
41466;SDS011;27205;53.690;19.948;2022-10-28T00:30:51;56.80;;;28.00;;
41466;SDS011;27205;53.690;19.948;2022-10-28T00:35:54;51.60;;;23.00;;
41466;SDS011;27205;53.690;19.948;2022-10-28T00:40:57;62.40;;;27.90;;
41466;SDS011;27205;53.690;19.948;2022-10-28T00:46:01;69.60;;;29.00;;
41466;SDS011;27205;53.690;19.948;2022-10-28T00:51:08;68.20;;;28.20;;
41466;SDS011;27205;53.690;19.948;2022-10-28T00:56:11;43.40;;;23.90;;
41466;SDS011;27205;53.690;19.948;2022-10-28T01:01:15;59.30;;;26.20;;
41466;SDS011;27205;53.690;19.948;2022-10-28T01:06:18;56.70;;;24.20;;
41466;SDS011;27205;53.690;19.948;2022-10-28T01:22:05;60.70;;;25.90;;
41466;SDS011;27205;53.690;19.948;2022-10-28T01:27:35;35.70;;;23.80;;
41466;SDS011;27205;53.690;19.948;2022-10-28T01:33:28;31.20;;;27.90;;
41466;SDS011;27205;53.690;19.948;2022-10-28T01:38:31;41.60;;;28.80;;
41466;SDS011;27205;53.690;19.948;2022-10-28T01:43:45;35.60;;;30.10;;
41466;SDS011;27205;53.690;19.948;2022-10-28T01:49:04;31.70;;;28.90;;
41466;SDS011;27205;53.690;19.948;2022-10-28T01:54:09;26.20;;;23.70;;
41466;SDS011;27205;53.690;19.948;2022-10-28T01:59:27;35.60;;;22.60;;
41466;SDS011;27205;53.690;19.948;2022-10-28T02:04:32;40.10;;;22.30;;
41466;SDS011;27205;53.690;19.948;2022-10-28T02:09:46;40.60;;;20.70;;
41466;SDS011;27205;53.690;19.948;2022-10-28T02:26:14;32.20;;;20.20;;
41466;SDS011;27205;53.690;19.948;2022-10-28T02:36:31;31.30;;;14.90;;
41466;SDS011;27205;53.690;19.948;2022-10-28T02:41:39;28.50;;;14.50;;
41466;SDS011;27205;53.690;19.948;2022-10-28T02:46:44;26.10;;;13.40;;
41466;SDS011;27205;53.690;19.948;2022-10-28T02:51:51;28.90;;;11.80;;
41466;SDS011;27205;53.690;19.948;2022-10-28T02:57:14;15.50;;;11.70;;
41466;SDS011;27205;53.690;19.948;2022-10-28T03:02:21;21.40;;;12.50;;
41466;SDS011;27205;53.690;19.948;2022-10-28T03:07:25;17.30;;;11.60;;
41466;SDS011;27205;53.690;19.948;2022-10-28T03:12:28;15.20;;;12.40;;
41466;SDS011;27205;53.690;19.948;2022-10-28T03:17:32;16.50;;;11.30;;
41466;SDS011;27205;53.690;19.948;2022-10-28T03:22:35;11.90;;;11.10;;
41466;SDS011;27205;53.690;19.948;2022-10-28T03:27:39;12.20;;;11.50;;
41466;SDS011;27205;53.690;19.948;2022-10-28T03:32:43;10.90;;;10.30;;
41466;SDS011;27205;53.690;19.948;2022-10-28T03:37:46;13.10;;;12.20;;
41466;SDS011;27205;53.690;19.948;2022-10-28T03:42:49;13.70;;;12.90;;
41466;SDS011;27205;53.690;19.948;2022-10-28T03:47:53;14.10;;;13.20;;
41466;SDS011;27205;53.690;19.948;2022-10-28T03:52:57;14.50;;;13.40;;
41466;SDS011;27205;53.690;19.948;2022-10-28T03:58:01;11.20;;;10.40;;
41466;SDS011;27205;53.690;19.948;2022-10-28T04:03:05;16.60;;;15.20;;
41466;SDS011;27205;53.690;19.948;2022-10-28T04:08:08;16.50;;;14.90;;
41466;SDS011;27205;53.690;19.948;2022-10-28T04:13:12;16.90;;;15.00;;
41466;SDS011;27205;53.690;19.948;2022-10-28T04:23:19;15.10;;;13.50;;
41466;SDS011;27205;53.690;19.948;2022-10-28T04:28:22;15.90;;;14.70;;
41466;SDS011;27205;53.690;19.948;2022-10-28T04:33:26;15.30;;;14.30;;
41466;SDS011;27205;53.690;19.948;2022-10-28T04:38:29;13.30;;;12.40;;
41466;SDS011;27205;53.690;19.948;2022-10-28T04:43:32;12.30;;;11.40;;
41466;SDS011;27205;53.690;19.948;2022-10-28T04:48:36;12.90;;;12.10;;
41466;SDS011;27205;53.690;19.948;2022-10-28T04:53:39;13.40;;;12.50;;
41466;SDS011;27205;53.690;19.948;2022-10-28T04:58:42;12.20;;;11.10;;
41466;SDS011;27205;53.690;19.948;2022-10-28T05:03:45;11.20;;;10.30;;
41466;SDS011;27205;53.690;19.948;2022-10-28T05:08:49;12.00;;;11.20;;
41466;SDS011;27205;53.690;19.948;2022-10-28T05:13:52;12.10;;;11.30;;
41466;SDS011;27205;53.690;19.948;2022-10-28T05:18:56;13.90;;;12.90;;
41466;SDS011;27205;53.690;19.948;2022-10-28T05:24:00;12.70;;;11.80;;
41466;SDS011;27205;53.690;19.948;2022-10-28T05:29:03;11.50;;;10.80;;
41466;SDS011;27205;53.690;19.948;2022-10-28T05:34:07;12.50;;;11.70;;
41466;SDS011;27205;53.690;19.948;2022-10-28T05:39:10;12.50;;;11.70;;
41466;SDS011;27205;53.690;19.948;2022-10-28T05:44:15;13.00;;;12.20;;
41466;SDS011;27205;53.690;19.948;2022-10-28T05:49:18;12.30;;;11.40;;
41466;SDS011;27205;53.690;19.948;2022-10-28T05:54:22;13.50;;;12.50;;
41466;SDS011;27205;53.690;19.948;2022-10-28T05:59:25;13.30;;;12.20;;
41466;SDS011;27205;53.690;19.948;2022-10-28T06:04:28;13.20;;;12.30;;
41466;SDS011;27205;53.690;19.948;2022-10-28T06:14:36;10.50;;;9.80;;
41466;SDS011;27205;53.690;19.948;2022-10-28T06:19:39;12.20;;;11.40;;
41466;SDS011;27205;53.690;19.948;2022-10-28T06:24:42;12.30;;;11.50;;
41466;SDS011;27205;53.690;19.948;2022-10-28T06:29:45;13.30;;;12.40;;
41466;SDS011;27205;53.690;19.948;2022-10-28T06:34:49;12.90;;;12.10;;
41466;SDS011;27205;53.690;19.948;2022-10-28T06:39:52;12.00;;;11.20;;
41466;SDS011;27205;53.690;19.948;2022-10-28T06:44:56;12.00;;;11.30;;
41466;SDS011;27205;53.690;19.948;2022-10-28T06:49:59;12.80;;;12.10;;
41466;SDS011;27205;53.690;19.948;2022-10-28T06:55:03;11.20;;;10.50;;
41466;SDS011;27205;53.690;19.948;2022-10-28T07:00:06;11.20;;;10.40;;
41466;SDS011;27205;53.690;19.948;2022-10-28T07:05:11;12.30;;;11.40;;
41466;SDS011;27205;53.690;19.948;2022-10-28T07:10:14;12.60;;;11.70;;
41466;SDS011;27205;53.690;19.948;2022-10-28T07:15:17;12.40;;;11.50;;
41466;SDS011;27205;53.690;19.948;2022-10-28T07:20:21;13.10;;;12.30;;
41466;SDS011;27205;53.690;19.948;2022-10-28T07:25:26;14.60;;;13.60;;
41466;SDS011;27205;53.690;19.948;2022-10-28T07:30:31;10.80;;;10.10;;
41466;SDS011;27205;53.690;19.948;2022-10-28T07:35:34;13.40;;;12.40;;
41466;SDS011;27205;53.690;19.948;2022-10-28T07:40:38;13.70;;;12.80;;
41466;SDS011;27205;53.690;19.948;2022-10-28T07:45:41;14.50;;;13.40;;
41466;SDS011;27205;53.690;19.948;2022-10-28T07:50:44;14.20;;;13.10;;
41466;SDS011;27205;53.690;19.948;2022-10-28T07:55:55;13.10;;;12.10;;
41466;SDS011;27205;53.690;19.948;2022-10-28T08:01:03;13.10;;;12.10;;
41466;SDS011;27205;53.690;19.948;2022-10-28T08:06:17;12.30;;;11.40;;
41466;SDS011;27205;53.690;19.948;2022-10-28T08:11:22;13.80;;;12.80;;
41466;SDS011;27205;53.690;19.948;2022-10-28T08:21:30;13.00;;;11.90;;
41466;SDS011;27205;53.690;19.948;2022-10-28T08:26:34;11.70;;;10.70;;
41466;SDS011;27205;53.690;19.948;2022-10-28T08:31:37;10.90;;;10.20;;
41466;SDS011;27205;53.690;19.948;2022-10-28T08:47:12;11.20;;;10.30;;
41466;SDS011;27205;53.690;19.948;2022-10-28T08:52:33;11.90;;;11.00;;
41466;SDS011;27205;53.690;19.948;2022-10-28T08:57:44;13.60;;;12.60;;
41466;SDS011;27205;53.690;19.948;2022-10-28T09:18:54;10.90;;;10.10;;
41466;SDS011;27205;53.690;19.948;2022-10-28T09:24:02;11.40;;;10.50;;
41466;SDS011;27205;53.690;19.948;2022-10-28T09:29:27;11.00;;;10.20;;
41466;SDS011;27205;53.690;19.948;2022-10-28T09:35:10;12.80;;;11.70;;
41466;SDS011;27205;53.690;19.948;2022-10-28T09:40:21;11.30;;;10.50;;
41466;SDS011;27205;53.690;19.948;2022-10-28T09:45:29;12.00;;;11.10;;
41466;SDS011;27205;53.690;19.948;2022-10-28T09:50:35;12.60;;;11.60;;
41466;SDS011;27205;53.690;19.948;2022-10-28T09:55:38;11.10;;;10.20;;
41466;SDS011;27205;53.690;19.948;2022-10-28T10:00:41;11.40;;;10.60;;
41466;SDS011;27205;53.690;19.948;2022-10-28T10:05:48;11.70;;;10.80;;
41466;SDS011;27205;53.690;19.948;2022-10-28T10:10:55;11.20;;;10.40;;
41466;SDS011;27205;53.690;19.948;2022-10-28T10:16:05;11.30;;;10.50;;
41466;SDS011;27205;53.690;19.948;2022-10-28T10:21:22;11.70;;;10.80;;
41466;SDS011;27205;53.690;19.948;2022-10-28T10:26:51;10.60;;;9.80;;
41466;SDS011;27205;53.690;19.948;2022-10-28T10:32:03;10.70;;;9.80;;
41466;SDS011;27205;53.690;19.948;2022-10-28T10:37:20;10.30;;;9.50;;
41466;SDS011;27205;53.690;19.948;2022-10-28T10:42:25;11.40;;;10.50;;
41466;SDS011;27205;53.690;19.948;2022-10-28T10:47:29;11.10;;;10.30;;
41466;SDS011;27205;53.690;19.948;2022-10-28T10:52:33;10.70;;;9.90;;
41466;SDS011;27205;53.690;19.948;2022-10-28T10:57:37;10.80;;;9.10;;
41466;SDS011;27205;53.690;19.948;2022-10-28T11:02:44;11.50;;;10.60;;
41466;SDS011;27205;53.690;19.948;2022-10-28T11:07:55;10.70;;;9.90;;
41466;SDS011;27205;53.690;19.948;2022-10-28T11:13:03;9.10;;;8.40;;
41466;SDS011;27205;53.690;19.948;2022-10-28T11:29:10;8.00;;;7.40;;
41466;SDS011;27205;53.690;19.948;2022-10-28T11:55:34;8.60;;;8.00;;
41466;SDS011;27205;53.690;19.948;2022-10-28T12:17:00;11.50;;;10.60;;
41466;SDS011;27205;53.690;19.948;2022-10-28T12:22:22;12.20;;;11.20;;
41466;SDS011;27205;53.690;19.948;2022-10-28T12:27:32;10.30;;;9.40;;
41466;SDS011;27205;53.690;19.948;2022-10-28T12:32:39;11.40;;;10.50;;
41466;SDS011;27205;53.690;19.948;2022-10-28T12:37:50;12.20;;;11.20;;
41466;SDS011;27205;53.690;19.948;2022-10-28T12:42:59;12.20;;;11.30;;
41466;SDS011;27205;53.690;19.948;2022-10-28T12:53:45;10.80;;;10.00;;
41466;SDS011;27205;53.690;19.948;2022-10-28T13:04:17;9.80;;;9.00;;
41466;SDS011;27205;53.690;19.948;2022-10-28T13:30:55;11.00;;;10.10;;
41466;SDS011;27205;53.690;19.948;2022-10-28T13:41:25;11.10;;;10.30;;
41466;SDS011;27205;53.690;19.948;2022-10-28T13:52:03;9.30;;;8.70;;
41466;SDS011;27205;53.690;19.948;2022-10-28T13:57:36;9.00;;;8.30;;
41466;SDS011;27205;53.690;19.948;2022-10-28T14:02:41;10.20;;;9.40;;
41466;SDS011;27205;53.690;19.948;2022-10-28T14:07:59;9.40;;;8.60;;
41466;SDS011;27205;53.690;19.948;2022-10-28T14:13:16;10.90;;;9.90;;
41466;SDS011;27205;53.690;19.948;2022-10-28T14:18:22;9.80;;;9.00;;
41466;SDS011;27205;53.690;19.948;2022-10-28T14:28:49;8.20;;;7.50;;
41466;SDS011;27205;53.690;19.948;2022-10-28T14:49:31;11.20;;;9.00;;
41466;SDS011;27205;53.690;19.948;2022-10-28T14:54:43;11.00;;;10.10;;
41466;SDS011;27205;53.690;19.948;2022-10-28T14:59:54;10.50;;;9.60;;
41466;SDS011;27205;53.690;19.948;2022-10-28T15:10:18;11.00;;;10.10;;
41466;SDS011;27205;53.690;19.948;2022-10-28T15:15:22;11.40;;;10.40;;
41466;SDS011;27205;53.690;19.948;2022-10-28T15:20:29;10.20;;;9.40;;
41466;SDS011;27205;53.690;19.948;2022-10-28T15:25:35;11.30;;;10.20;;
41466;SDS011;27205;53.690;19.948;2022-10-28T15:30:39;10.40;;;9.50;;
41466;SDS011;27205;53.690;19.948;2022-10-28T15:35:48;10.40;;;9.60;;
41466;SDS011;27205;53.690;19.948;2022-10-28T15:40:51;10.20;;;9.50;;
41466;SDS011;27205;53.690;19.948;2022-10-28T15:46:06;10.50;;;9.60;;
41466;SDS011;27205;53.690;19.948;2022-10-28T15:51:17;12.80;;;11.80;;
41466;SDS011;27205;53.690;19.948;2022-10-28T15:56:22;12.20;;;11.20;;
41466;SDS011;27205;53.690;19.948;2022-10-28T16:01:29;11.40;;;10.40;;
41466;SDS011;27205;53.690;19.948;2022-10-28T16:06:34;12.20;;;11.20;;
41466;SDS011;27205;53.690;19.948;2022-10-28T16:11:41;12.70;;;11.70;;
41466;SDS011;27205;53.690;19.948;2022-10-28T16:16:47;13.00;;;12.00;;
41466;SDS011;27205;53.690;19.948;2022-10-28T16:21:50;14.20;;;13.00;;
41466;SDS011;27205;53.690;19.948;2022-10-28T16:27:07;13.70;;;12.60;;
41466;SDS011;27205;53.690;19.948;2022-10-28T16:32:17;12.50;;;11.50;;
41466;SDS011;27205;53.690;19.948;2022-10-28T16:37:28;12.90;;;12.00;;
41466;SDS011;27205;53.690;19.948;2022-10-28T16:42:33;13.50;;;12.20;;
41466;SDS011;27205;53.690;19.948;2022-10-28T16:47:39;13.50;;;12.40;;
41466;SDS011;27205;53.690;19.948;2022-10-28T16:52:42;11.90;;;10.80;;
41466;SDS011;27205;53.690;19.948;2022-10-28T16:57:46;12.10;;;11.10;;
41466;SDS011;27205;53.690;19.948;2022-10-28T17:02:49;10.60;;;9.80;;
41466;SDS011;27205;53.690;19.948;2022-10-28T17:07:52;12.80;;;11.60;;
41466;SDS011;27205;53.690;19.948;2022-10-28T17:12:58;13.50;;;12.10;;
41466;SDS011;27205;53.690;19.948;2022-10-28T17:18:01;13.70;;;12.60;;
41466;SDS011;27205;53.690;19.948;2022-10-28T17:23:05;13.40;;;12.30;;
41466;SDS011;27205;53.690;19.948;2022-10-28T17:33:46;15.10;;;13.90;;
41466;SDS011;27205;53.690;19.948;2022-10-28T17:38:49;13.30;;;12.20;;
41466;SDS011;27205;53.690;19.948;2022-10-28T17:43:53;14.00;;;12.90;;
41466;SDS011;27205;53.690;19.948;2022-10-28T17:54:00;14.70;;;13.40;;
41466;SDS011;27205;53.690;19.948;2022-10-28T17:59:04;14.80;;;13.60;;
41466;SDS011;27205;53.690;19.948;2022-10-28T18:04:08;13.20;;;12.10;;
41466;SDS011;27205;53.690;19.948;2022-10-28T18:09:13;12.10;;;11.10;;
41466;SDS011;27205;53.690;19.948;2022-10-28T18:14:16;13.40;;;12.30;;
41466;SDS011;27205;53.690;19.948;2022-10-28T18:19:19;13.40;;;12.40;;
41466;SDS011;27205;53.690;19.948;2022-10-28T18:24:25;14.10;;;13.00;;
41466;SDS011;27205;53.690;19.948;2022-10-28T18:29:28;12.80;;;11.70;;
41466;SDS011;27205;53.690;19.948;2022-10-28T18:34:32;13.80;;;12.70;;
41466;SDS011;27205;53.690;19.948;2022-10-28T18:39:35;11.60;;;10.70;;
41466;SDS011;27205;53.690;19.948;2022-10-28T18:44:38;13.90;;;12.60;;
41466;SDS011;27205;53.690;19.948;2022-10-28T18:49:43;13.70;;;12.50;;
41466;SDS011;27205;53.690;19.948;2022-10-28T18:54:47;12.10;;;11.20;;
41466;SDS011;27205;53.690;19.948;2022-10-28T18:59:50;13.70;;;12.50;;
41466;SDS011;27205;53.690;19.948;2022-10-28T19:05:13;13.20;;;12.10;;
41466;SDS011;27205;53.690;19.948;2022-10-28T19:10:17;13.00;;;11.90;;
41466;SDS011;27205;53.690;19.948;2022-10-28T19:15:20;12.20;;;11.20;;
41466;SDS011;27205;53.690;19.948;2022-10-28T19:20:23;12.80;;;10.80;;
41466;SDS011;27205;53.690;19.948;2022-10-28T19:25:27;11.10;;;10.20;;
41466;SDS011;27205;53.690;19.948;2022-10-28T19:30:30;9.60;;;8.80;;
41466;SDS011;27205;53.690;19.948;2022-10-28T19:35:33;11.70;;;10.70;;
41466;SDS011;27205;53.690;19.948;2022-10-28T19:40:37;12.90;;;11.60;;
41466;SDS011;27205;53.690;19.948;2022-10-28T19:45:40;12.00;;;11.00;;
41466;SDS011;27205;53.690;19.948;2022-10-28T19:50:47;10.50;;;9.60;;
41466;SDS011;27205;53.690;19.948;2022-10-28T19:55:54;11.70;;;10.80;;
41466;SDS011;27205;53.690;19.948;2022-10-28T20:01:00;12.50;;;11.30;;
41466;SDS011;27205;53.690;19.948;2022-10-28T20:06:07;11.40;;;10.40;;
41466;SDS011;27205;53.690;19.948;2022-10-28T20:11:13;12.10;;;11.10;;
41466;SDS011;27205;53.690;19.948;2022-10-28T20:16:28;12.80;;;11.70;;
41466;SDS011;27205;53.690;19.948;2022-10-28T20:21:33;12.80;;;11.70;;
41466;SDS011;27205;53.690;19.948;2022-10-28T20:31:40;13.60;;;12.60;;
41466;SDS011;27205;53.690;19.948;2022-10-28T20:36:43;14.40;;;12.50;;
41466;SDS011;27205;53.690;19.948;2022-10-28T20:41:48;13.00;;;12.00;;
41466;SDS011;27205;53.690;19.948;2022-10-28T20:46:52;13.30;;;12.00;;
41466;SDS011;27205;53.690;19.948;2022-10-28T20:51:56;9.60;;;8.70;;
41466;SDS011;27205;53.690;19.948;2022-10-28T20:56:59;12.00;;;10.90;;
41466;SDS011;27205;53.690;19.948;2022-10-28T21:02:02;11.70;;;10.80;;
41466;SDS011;27205;53.690;19.948;2022-10-28T21:07:06;11.60;;;10.70;;
41466;SDS011;27205;53.690;19.948;2022-10-28T21:12:10;12.90;;;11.70;;
41466;SDS011;27205;53.690;19.948;2022-10-28T21:17:13;12.60;;;11.50;;
41466;SDS011;27205;53.690;19.948;2022-10-28T21:22:17;11.80;;;10.60;;
41466;SDS011;27205;53.690;19.948;2022-10-28T21:27:20;12.40;;;11.30;;
41466;SDS011;27205;53.690;19.948;2022-10-28T21:32:23;11.70;;;10.80;;
41466;SDS011;27205;53.690;19.948;2022-10-28T21:37:27;11.00;;;10.10;;
41466;SDS011;27205;53.690;19.948;2022-10-28T21:42:30;11.90;;;10.70;;
41466;SDS011;27205;53.690;19.948;2022-10-28T21:47:33;10.70;;;9.90;;
41466;SDS011;27205;53.690;19.948;2022-10-28T21:52:36;11.40;;;10.50;;
41466;SDS011;27205;53.690;19.948;2022-10-28T21:57:40;8.70;;;8.00;;
41466;SDS011;27205;53.690;19.948;2022-10-28T22:02:43;11.30;;;10.30;;
41466;SDS011;27205;53.690;19.948;2022-10-28T22:07:46;11.40;;;10.40;;
41466;SDS011;27205;53.690;19.948;2022-10-28T22:12:50;11.40;;;10.50;;
41466;SDS011;27205;53.690;19.948;2022-10-28T22:17:53;11.10;;;10.10;;
41466;SDS011;27205;53.690;19.948;2022-10-28T22:22:56;11.40;;;10.30;;
41466;SDS011;27205;53.690;19.948;2022-10-28T22:28:00;11.00;;;10.20;;
41466;SDS011;27205;53.690;19.948;2022-10-28T22:33:03;11.90;;;10.70;;
41466;SDS011;27205;53.690;19.948;2022-10-28T22:38:07;10.80;;;9.90;;
41466;SDS011;27205;53.690;19.948;2022-10-28T22:43:10;10.50;;;9.60;;
41466;SDS011;27205;53.690;19.948;2022-10-28T22:48:13;11.50;;;10.50;;
41466;SDS011;27205;53.690;19.948;2022-10-28T22:53:17;11.00;;;9.90;;
41466;SDS011;27205;53.690;19.948;2022-10-28T23:03:24;10.90;;;10.00;;
41466;SDS011;27205;53.690;19.948;2022-10-28T23:08:28;10.80;;;9.90;;
41466;SDS011;27205;53.690;19.948;2022-10-28T23:13:31;10.50;;;9.50;;
41466;SDS011;27205;53.690;19.948;2022-10-28T23:18:35;10.60;;;9.70;;
41466;SDS011;27205;53.690;19.948;2022-10-28T23:23:39;11.30;;;10.20;;
41466;SDS011;27205;53.690;19.948;2022-10-28T23:28:43;10.10;;;9.30;;
41466;SDS011;27205;53.690;19.948;2022-10-28T23:33:47;7.00;;;6.50;;
41466;SDS011;27205;53.690;19.948;2022-10-28T23:38:51;10.10;;;9.40;;
41466;SDS011;27205;53.690;19.948;2022-10-28T23:43:55;11.10;;;9.20;;
41466;SDS011;27205;53.690;19.948;2022-10-28T23:48:58;11.60;;;10.30;;
41466;SDS011;27205;53.690;19.948;2022-10-28T23:54:02;11.00;;;10.00;;
41466;SDS011;27205;53.690;19.948;2022-10-28T23:59:05;11.00;;;10.10;;
